createdAt,value
2019-02-10T00:00:52.644Z,5.60
2019-02-10T00:03:21.062Z,5.60
2019-02-10T00:05:49.491Z,5.60
2019-02-10T00:08:17.919Z,5.60
2019-02-10T00:10:46.317Z,5.50
2019-02-10T00:13:20.930Z,5.40
2019-02-10T00:15:49.338Z,5.40
2019-02-10T00:18:17.754Z,5.30
2019-02-10T00:20:46.184Z,5.40
2019-02-10T00:23:14.588Z,5.40
2019-02-10T00:25:43.023Z,5.40
2019-02-10T00:28:11.424Z,5.40
2019-02-10T00:30:39.850Z,5.40
2019-02-10T00:33:08.270Z,5.40
2019-02-10T00:35:36.688Z,5.40
2019-02-10T00:38:05.391Z,5.40
2019-02-10T00:40:33.826Z,5.40
2019-02-10T00:43:02.229Z,5.40
2019-02-10T00:45:30.666Z,5.40
2019-02-10T00:47:59.091Z,5.50
2019-02-10T00:50:27.514Z,5.50
2019-02-10T00:52:55.922Z,5.50
2019-02-10T00:55:24.344Z,5.60
2019-02-10T00:57:52.740Z,5.60
2019-02-10T01:00:21.169Z,5.60
2019-02-10T01:02:49.586Z,5.70
2019-02-10T01:05:18.076Z,5.70
2019-02-10T01:07:46.490Z,5.70
2019-02-10T01:10:14.926Z,5.70
2019-02-10T01:12:43.344Z,5.70
2019-02-10T01:15:11.929Z,5.70
2019-02-10T01:17:40.326Z,5.60
2019-02-10T01:20:10.076Z,5.60
2019-02-10T01:22:38.490Z,5.60
2019-02-10T01:25:07.958Z,5.60
2019-02-10T01:27:36.376Z,5.60
2019-02-10T01:30:10.728Z,5.50
2019-02-10T01:32:39.135Z,5.50
2019-02-10T01:35:07.695Z,5.50
2019-02-10T01:37:36.092Z,5.60
2019-02-10T01:40:06.548Z,5.60
2019-02-10T01:42:35.115Z,5.60
2019-02-10T01:45:04.098Z,5.60
2019-02-10T01:47:32.582Z,5.60
2019-02-10T01:50:00.992Z,5.60
2019-02-10T01:52:29.414Z,5.60
2019-02-10T01:54:57.850Z,5.70
2019-02-10T01:57:26.244Z,5.70
2019-02-10T01:59:54.679Z,5.70
2019-02-10T02:02:23.135Z,5.80
2019-02-10T02:04:51.616Z,5.80
2019-02-10T02:07:20.043Z,5.90
2019-02-10T02:09:48.467Z,5.80
2019-02-10T02:12:16.870Z,5.80
2019-02-10T02:14:45.322Z,5.80
2019-02-10T02:17:13.789Z,5.80
2019-02-10T02:19:42.211Z,5.90
2019-02-10T02:22:10.613Z,5.90
2019-02-10T02:24:39.033Z,5.90
2019-02-10T02:27:07.441Z,5.90
2019-02-10T02:29:35.867Z,5.90
2019-02-10T02:32:04.328Z,5.90
2019-02-10T02:34:32.747Z,5.90
2019-02-10T02:37:07.592Z,5.90
2019-02-10T02:39:31.490Z,5.90
2019-02-10T02:41:59.904Z,5.90
2019-02-10T02:44:28.308Z,6.00
2019-02-10T02:46:56.730Z,6.00
2019-02-10T02:49:25.191Z,6.00
2019-02-10T02:51:53.644Z,6.00
2019-02-10T02:54:22.049Z,6.00
2019-02-10T02:56:50.492Z,6.00
2019-02-10T02:59:18.895Z,6.00
2019-02-10T03:01:47.330Z,6.00
2019-02-10T03:04:15.721Z,6.00
2019-02-10T03:06:46.876Z,6.00
2019-02-10T03:09:15.420Z,6.10
2019-02-10T03:11:43.841Z,6.00
2019-02-10T03:14:12.249Z,6.10
2019-02-10T03:16:40.668Z,6.20
2019-02-10T03:19:09.078Z,6.20
2019-02-10T03:21:37.508Z,6.20
2019-02-10T03:24:05.920Z,6.20
2019-02-10T03:26:34.331Z,6.20
2019-02-10T03:29:02.804Z,6.20
2019-02-10T03:31:31.237Z,6.30
2019-02-10T03:33:59.661Z,6.20
2019-02-10T03:36:28.090Z,6.30
2019-02-10T03:38:56.492Z,6.30
2019-02-10T03:41:24.908Z,6.30
2019-02-10T03:43:53.383Z,6.30
2019-02-10T03:46:21.817Z,6.40
2019-02-10T03:48:50.231Z,6.40
2019-02-10T03:51:18.644Z,6.50
2019-02-10T03:53:47.131Z,6.50
2019-02-10T03:56:15.558Z,6.50
2019-02-10T03:58:43.968Z,6.50
2019-02-10T04:01:12.380Z,6.50
2019-02-10T04:03:40.804Z,6.50
2019-02-10T04:06:09.247Z,6.60
2019-02-10T04:08:37.636Z,6.60
2019-02-10T04:11:06.052Z,6.60
2019-02-10T04:13:34.467Z,6.60
2019-02-10T04:16:02.880Z,6.70
2019-02-10T04:18:31.276Z,6.70
2019-02-10T04:20:59.703Z,6.70
2019-02-10T04:23:28.105Z,6.80
2019-02-10T04:25:56.517Z,6.90
2019-02-10T04:28:24.927Z,6.90
2019-02-10T04:30:53.361Z,7.00
2019-02-10T04:33:21.833Z,7.00
2019-02-10T04:35:50.242Z,7.10
2019-02-10T04:38:18.727Z,7.20
2019-02-10T04:40:47.123Z,7.20
2019-02-10T04:43:15.560Z,7.20
2019-02-10T04:45:43.959Z,7.20
2019-02-10T04:48:12.390Z,7.20
2019-02-10T04:50:40.791Z,7.30
2019-02-10T04:53:09.218Z,7.20
2019-02-10T04:55:37.628Z,7.20
2019-02-10T04:58:06.047Z,7.20
2019-02-10T05:00:34.470Z,7.20
2019-02-10T05:03:02.872Z,7.10
2019-02-10T05:05:31.301Z,7.20
2019-02-10T05:07:59.692Z,7.10
2019-02-10T05:10:28.118Z,7.20
2019-02-10T05:12:56.541Z,7.20
2019-02-10T05:15:24.951Z,7.30
2019-02-10T05:17:53.370Z,7.30
2019-02-10T05:20:22.720Z,7.30
2019-02-10T05:22:51.139Z,7.40
2019-02-10T05:25:19.544Z,7.50
2019-02-10T05:27:47.985Z,7.50
2019-02-10T05:30:16.372Z,7.50
2019-02-10T05:32:44.799Z,7.60
2019-02-10T05:35:13.222Z,7.60
2019-02-10T05:37:41.643Z,7.70
2019-02-10T05:40:10.041Z,7.70
2019-02-10T05:42:38.461Z,7.60
2019-02-10T05:45:08.049Z,7.70
2019-02-10T05:47:36.485Z,7.70
2019-02-10T05:50:06.837Z,7.70
2019-02-10T05:52:35.260Z,7.70
2019-02-10T05:55:03.926Z,7.70
2019-02-10T05:57:32.361Z,7.80
2019-02-10T06:00:00.748Z,7.70
2019-02-10T06:02:31.004Z,7.80
2019-02-10T06:05:00.450Z,7.80
2019-02-10T06:07:28.901Z,7.80
2019-02-10T06:09:57.280Z,7.90
2019-02-10T06:12:25.718Z,7.90
2019-02-10T06:14:54.113Z,7.90
2019-02-10T06:17:22.525Z,7.80
2019-02-10T06:19:50.926Z,7.90
2019-02-10T06:22:19.427Z,7.90
2019-02-10T06:24:47.836Z,7.90
2019-02-10T06:27:16.244Z,8.00
2019-02-10T06:29:44.648Z,7.90
2019-02-10T06:32:13.061Z,8.00
2019-02-10T06:34:41.456Z,8.00
2019-02-10T06:37:09.882Z,8.00
2019-02-10T06:39:38.269Z,8.00
2019-02-10T06:42:06.707Z,8.00
2019-02-10T06:44:35.124Z,8.10
2019-02-10T06:47:03.553Z,8.10
2019-02-10T06:49:32.019Z,8.10
2019-02-10T06:52:00.409Z,8.20
2019-02-10T06:54:28.825Z,8.20
2019-02-10T06:56:57.225Z,8.10
2019-02-10T06:59:27.276Z,8.10
2019-02-10T07:01:57.379Z,8.10
2019-02-10T07:04:25.889Z,8.20
2019-02-10T07:06:54.306Z,8.10
2019-02-10T07:09:24.390Z,8.10
2019-02-10T07:11:52.799Z,8.20
2019-02-10T07:14:27.769Z,8.40
2019-02-10T07:17:14.376Z,8.40
2019-02-10T07:20:11.643Z,8.50
2019-02-10T07:22:43.137Z,8.60
2019-02-10T07:25:17.639Z,8.60
2019-02-10T07:28:04.329Z,8.70
2019-02-10T07:30:47.883Z,8.80
2019-02-10T07:33:21.983Z,8.70
2019-02-10T07:35:59.333Z,8.80
2019-02-10T07:38:39.810Z,8.80
2019-02-10T07:41:20.338Z,8.90
2019-02-10T07:44:00.427Z,8.90
2019-02-10T07:46:57.229Z,9.00
2019-02-10T07:49:49.751Z,9.00
2019-02-10T07:52:29.926Z,9.10
2019-02-10T07:55:10.374Z,9.20
2019-02-10T07:57:50.750Z,9.30
2019-02-10T08:00:44.910Z,9.40
2019-02-10T08:03:25.391Z,9.50
2019-02-10T08:06:05.925Z,9.50
2019-02-10T08:08:37.429Z,9.60
2019-02-10T08:11:17.652Z,9.70
2019-02-10T08:14:08.564Z,9.80
2019-02-10T08:16:46.068Z,10.00
2019-02-10T08:19:20.198Z,10.10
2019-02-10T08:22:14.627Z,10.20
2019-02-10T08:24:54.841Z,10.20
2019-02-10T08:27:32.039Z,10.30
2019-02-10T08:30:03.796Z,10.40
2019-02-10T08:32:44.084Z,10.40
2019-02-10T08:35:27.499Z,10.30
2019-02-10T08:38:21.546Z,10.50
2019-02-10T08:41:17.036Z,10.60
2019-02-10T08:44:00.339Z,10.80
2019-02-10T08:46:43.504Z,11.00
2019-02-10T08:49:31.764Z,11.10
2019-02-10T08:52:29.256Z,11.30
2019-02-10T08:54:58.328Z,11.40
2019-02-10T08:57:26.738Z,11.50
2019-02-10T08:59:55.142Z,11.60
2019-02-10T09:02:24.452Z,11.70
2019-02-10T09:04:52.854Z,11.80
2019-02-10T09:07:21.291Z,11.80
2019-02-10T09:09:49.688Z,11.90
2019-02-10T09:12:18.115Z,12.00
2019-02-10T09:14:46.536Z,12.10
2019-02-10T09:17:15.034Z,12.10
2019-02-10T09:19:43.432Z,12.10
2019-02-10T09:22:11.848Z,12.00
2019-02-10T09:24:40.252Z,11.90
2019-02-10T09:27:08.670Z,12.00
2019-02-10T09:29:37.068Z,12.10
2019-02-10T09:32:05.504Z,12.30
2019-02-10T09:34:33.926Z,12.40
2019-02-10T09:37:02.370Z,12.60
2019-02-10T09:39:30.801Z,12.60
2019-02-10T09:41:59.216Z,12.60
2019-02-10T09:44:27.616Z,12.70
2019-02-10T09:46:56.062Z,12.70
2019-02-10T09:49:24.472Z,12.60
2019-02-10T09:51:52.886Z,12.60
2019-02-10T09:54:21.310Z,12.60
2019-02-10T09:56:49.766Z,12.60
2019-02-10T09:59:18.222Z,12.50
2019-02-10T10:01:46.642Z,12.50
2019-02-10T10:04:15.060Z,12.60
2019-02-10T10:06:43.501Z,12.50
2019-02-10T10:09:18.950Z,12.40
2019-02-10T10:11:42.043Z,12.40
2019-02-10T10:14:10.457Z,12.40
2019-02-10T10:16:38.861Z,12.40
2019-02-10T10:19:07.276Z,12.50
2019-02-10T10:21:35.680Z,12.70
2019-02-10T10:24:04.111Z,12.90
2019-02-10T10:26:32.512Z,13.10
2019-02-10T10:29:00.931Z,13.20
2019-02-10T10:31:29.336Z,13.40
2019-02-10T10:33:57.780Z,13.60
2019-02-10T10:36:26.180Z,13.70
2019-02-10T10:38:54.653Z,13.90
2019-02-10T10:41:23.073Z,14.00
2019-02-10T10:43:51.496Z,14.20
2019-02-10T10:46:19.901Z,14.40
2019-02-10T10:48:48.358Z,14.30
2019-02-10T10:51:16.750Z,14.50
2019-02-10T10:53:45.209Z,14.60
2019-02-10T10:56:13.628Z,14.50
2019-02-10T10:58:42.096Z,14.50
2019-02-10T11:01:10.498Z,14.70
2019-02-10T11:03:38.939Z,14.80
2019-02-10T11:06:07.341Z,14.90
2019-02-10T11:08:35.762Z,14.90
2019-02-10T11:11:04.156Z,15.00
2019-02-10T11:13:32.581Z,15.20
2019-02-10T11:16:00.999Z,15.30
2019-02-10T11:18:29.445Z,15.20
2019-02-10T11:20:57.872Z,15.10
2019-02-10T11:23:26.300Z,15.00
2019-02-10T11:25:54.701Z,15.10
2019-02-10T11:28:23.146Z,15.30
2019-02-10T11:30:51.528Z,15.40
2019-02-10T11:33:20.007Z,15.50
2019-02-10T11:35:48.409Z,15.50
2019-02-10T11:38:16.853Z,15.60
2019-02-10T11:40:45.265Z,15.70
2019-02-10T11:43:13.708Z,15.60
2019-02-10T11:45:42.132Z,15.70
2019-02-10T11:48:10.563Z,15.80
2019-02-10T11:50:38.956Z,15.70
2019-02-10T11:53:07.394Z,15.70
2019-02-10T11:55:35.794Z,15.70
2019-02-10T11:58:04.214Z,15.80
2019-02-10T12:00:32.628Z,15.70
2019-02-10T12:03:01.051Z,15.80
2019-02-10T12:05:29.466Z,15.80
2019-02-10T12:07:57.927Z,15.90
2019-02-10T12:10:26.341Z,15.90
2019-02-10T12:12:54.751Z,15.90
2019-02-10T12:15:23.191Z,15.90
2019-02-10T12:17:51.602Z,15.80
2019-02-10T12:20:20.024Z,15.80
2019-02-10T12:22:50.480Z,15.90
2019-02-10T12:25:19.001Z,15.90
2019-02-10T12:27:47.408Z,15.80
2019-02-10T12:30:16.863Z,15.80
2019-02-10T12:32:45.262Z,15.90
2019-02-10T12:35:13.763Z,15.80
2019-02-10T12:37:42.163Z,15.70
2019-02-10T12:40:11.627Z,15.70
2019-02-10T12:42:40.109Z,15.70
2019-02-10T12:45:10.269Z,15.60
2019-02-10T12:47:38.697Z,15.60
2019-02-10T12:50:12.031Z,15.70
2019-02-10T12:52:40.497Z,15.60
2019-02-10T12:55:10.270Z,15.40
2019-02-10T12:57:38.668Z,15.30
2019-02-10T13:00:17.954Z,15.30
2019-02-10T13:02:46.486Z,15.20
2019-02-10T13:05:14.975Z,15.20
2019-02-10T13:07:43.474Z,15.10
2019-02-10T13:10:16.379Z,14.90
2019-02-10T13:12:44.328Z,14.70
2019-02-10T13:15:13.308Z,14.50
2019-02-10T13:17:41.702Z,14.20
2019-02-10T13:20:14.666Z,14.00
2019-02-10T13:22:43.151Z,13.70
2019-02-10T13:25:12.705Z,13.50
2019-02-10T13:27:41.196Z,13.30
2019-02-10T13:30:17.283Z,13.10
2019-02-10T13:32:45.756Z,13.00
2019-02-10T13:35:14.195Z,12.70
2019-02-10T13:37:42.661Z,12.50
2019-02-10T13:40:17.219Z,12.30
2019-02-10T13:42:45.685Z,12.20
2019-02-10T13:45:14.118Z,12.20
2019-02-10T13:47:42.516Z,12.10
2019-02-10T13:50:18.677Z,12.10
2019-02-10T13:52:47.153Z,11.90
2019-02-10T13:55:16.330Z,11.80
2019-02-10T13:57:44.731Z,11.70
2019-02-10T14:00:21.274Z,11.80
2019-02-10T14:02:49.672Z,11.70
2019-02-10T14:05:18.106Z,11.70
2019-02-10T14:07:46.574Z,11.60
2019-02-10T14:10:16.228Z,11.60
2019-02-10T14:12:44.654Z,11.50
2019-02-10T14:15:17.064Z,11.50
2019-02-10T14:17:45.465Z,11.50
2019-02-10T14:20:17.713Z,11.50
2019-02-10T14:22:46.125Z,11.60
2019-02-10T14:25:14.555Z,11.50
2019-02-10T14:27:42.964Z,11.40
2019-02-10T14:30:22.920Z,11.40
2019-02-10T14:32:51.339Z,11.30
2019-02-10T14:35:19.757Z,11.30
2019-02-10T14:37:48.158Z,11.20
2019-02-10T14:40:16.595Z,11.10
2019-02-10T14:42:45.011Z,11.10
2019-02-10T14:45:15.492Z,11.10
2019-02-10T14:47:43.899Z,11.00
2019-02-10T14:50:14.665Z,11.00
2019-02-10T14:52:43.097Z,11.00
2019-02-10T14:55:11.594Z,10.90
2019-02-10T14:57:39.993Z,10.90
2019-02-10T15:00:11.126Z,10.90
2019-02-10T15:02:39.539Z,10.80
2019-02-10T15:05:08.396Z,10.80
2019-02-10T15:07:36.806Z,10.80
2019-02-10T15:10:11.922Z,10.90
2019-02-10T15:12:40.551Z,10.80
2019-02-10T15:15:10.657Z,10.70
2019-02-10T15:17:39.070Z,10.70
2019-02-10T15:20:09.423Z,10.70
2019-02-10T15:22:37.828Z,10.60
2019-02-10T15:25:14.001Z,10.60
2019-02-10T15:27:42.420Z,10.60
2019-02-10T15:30:13.468Z,10.60
2019-02-10T15:32:41.964Z,10.60
2019-02-10T15:35:10.492Z,10.50
2019-02-10T15:37:38.923Z,10.50
2019-02-10T15:40:12.092Z,10.40
2019-02-10T15:42:40.514Z,10.30
2019-02-10T15:45:11.282Z,10.20
2019-02-10T15:47:39.684Z,10.20
2019-02-10T15:50:13.633Z,10.10
2019-02-10T15:52:42.043Z,10.10
2019-02-10T15:55:11.899Z,10.00
2019-02-10T15:57:40.327Z,9.90
2019-02-10T16:00:11.964Z,9.70
2019-02-10T16:02:40.398Z,9.60
2019-02-10T16:05:08.906Z,9.60
2019-02-10T16:07:37.308Z,9.60
2019-02-10T16:10:08.778Z,9.60
2019-02-10T16:12:37.177Z,9.50
2019-02-10T16:15:07.924Z,9.50
2019-02-10T16:17:36.354Z,9.50
2019-02-10T16:20:08.099Z,9.50
2019-02-10T16:22:36.509Z,9.50
2019-02-10T16:25:06.748Z,9.50
2019-02-10T16:27:35.265Z,9.40
2019-02-10T16:30:06.573Z,9.40
2019-02-10T16:32:35.060Z,9.30
2019-02-10T16:35:03.805Z,9.40
2019-02-10T16:37:32.220Z,9.30
2019-02-10T16:40:00.635Z,9.30
2019-02-10T16:42:29.050Z,9.30
2019-02-10T16:44:57.457Z,9.30
2019-02-10T16:47:25.895Z,9.20
2019-02-10T16:49:54.290Z,9.20
2019-02-10T16:52:22.723Z,9.20
2019-02-10T16:54:51.117Z,9.10
2019-02-10T16:57:19.532Z,9.20
2019-02-10T16:59:47.932Z,9.10
2019-02-10T17:02:16.348Z,9.10
2019-02-10T17:04:44.744Z,9.10
2019-02-10T17:07:13.164Z,9.10
2019-02-10T17:09:41.947Z,9.10
2019-02-10T17:12:10.439Z,9.10
2019-02-10T17:14:38.838Z,9.00
2019-02-10T17:17:07.263Z,9.00
2019-02-10T17:19:35.678Z,8.90
2019-02-10T17:22:04.160Z,8.90
2019-02-10T17:24:32.570Z,8.90
2019-02-10T17:27:01.010Z,8.80
2019-02-10T17:29:29.434Z,8.80
2019-02-10T17:31:57.855Z,8.80
2019-02-10T17:34:26.281Z,8.80
2019-02-10T17:36:54.706Z,8.80
2019-02-10T17:39:23.108Z,8.90
2019-02-10T17:41:51.538Z,8.90
2019-02-10T17:44:19.943Z,8.90
2019-02-10T17:46:48.387Z,8.90
2019-02-10T17:49:16.780Z,8.80
2019-02-10T17:51:45.210Z,8.80
2019-02-10T17:54:13.629Z,8.70
2019-02-10T17:56:42.062Z,8.40
2019-02-10T17:59:10.456Z,7.70
2019-02-10T18:01:38.876Z,6.90
2019-02-10T18:04:07.306Z,6.70
2019-02-10T18:06:35.738Z,6.40
2019-02-10T18:09:05.591Z,6.30
2019-02-10T18:11:34.021Z,6.20
2019-02-10T18:14:04.095Z,6.20
2019-02-10T18:16:34.418Z,6.20
2019-02-10T18:19:04.493Z,6.20
2019-02-10T18:21:40.308Z,6.20
2019-02-10T18:24:10.345Z,6.20
2019-02-10T18:26:42.878Z,6.30
2019-02-10T18:29:18.648Z,6.30
2019-02-10T18:31:54.699Z,6.30
2019-02-10T18:34:33.946Z,6.30
2019-02-10T18:37:09.921Z,6.30
2019-02-10T18:39:39.974Z,6.20
2019-02-10T18:42:20.641Z,6.20
2019-02-10T18:44:44.738Z,6.10
2019-02-10T18:47:23.803Z,6.10
2019-02-10T18:49:53.841Z,6.10
2019-02-10T18:52:26.584Z,6.00
2019-02-10T18:55:02.440Z,6.00
2019-02-10T18:57:32.538Z,6.10
2019-02-10T19:00:18.906Z,6.00
2019-02-10T19:02:48.982Z,6.00
2019-02-10T19:05:34.981Z,6.00
2019-02-10T19:08:10.999Z,6.00
2019-02-10T19:10:58.889Z,6.00
2019-02-10T19:13:29.029Z,6.00
2019-02-10T19:15:59.080Z,6.00
2019-02-10T19:18:41.404Z,6.00
2019-02-10T19:21:14.172Z,6.00
2019-02-10T19:23:50.292Z,6.00
2019-02-10T19:26:29.366Z,6.00
2019-02-10T19:29:14.502Z,6.00
2019-02-10T19:31:50.636Z,6.00
2019-02-10T19:34:28.405Z,6.10
2019-02-10T19:37:10.924Z,6.10
2019-02-10T19:39:57.038Z,6.10
2019-02-10T19:42:29.834Z,6.10
2019-02-10T19:45:02.567Z,6.10
2019-02-10T19:47:50.662Z,6.20
2019-02-10T19:50:23.425Z,6.10
2019-02-10T19:52:53.561Z,6.10
2019-02-10T19:55:26.518Z,6.10
2019-02-10T19:57:56.573Z,6.00
2019-02-10T20:00:35.604Z,6.00
2019-02-10T20:03:05.687Z,6.00
2019-02-10T20:05:44.331Z,6.00
2019-02-10T20:08:29.733Z,6.10
2019-02-10T20:11:02.584Z,6.00
2019-02-10T20:13:38.065Z,6.00
2019-02-10T20:16:08.118Z,6.10
2019-02-10T20:18:38.195Z,6.10
2019-02-10T20:21:08.248Z,6.10
2019-02-10T20:23:38.309Z,6.10
2019-02-10T20:26:20.373Z,6.10
2019-02-10T20:28:53.673Z,6.10
2019-02-10T20:31:23.728Z,6.20
2019-02-10T20:33:53.789Z,6.20
2019-02-10T20:36:23.847Z,6.30
2019-02-10T20:38:56.875Z,6.40
2019-02-10T20:41:29.947Z,6.40
2019-02-10T20:44:08.765Z,6.30
2019-02-10T20:46:44.831Z,6.30
2019-02-10T20:49:17.542Z,6.30
2019-02-10T20:51:50.337Z,6.20
2019-02-10T20:54:22.975Z,6.20
2019-02-10T20:56:55.485Z,6.20
2019-02-10T20:59:25.603Z,6.20
2019-02-10T21:01:58.479Z,6.20
2019-02-10T21:04:31.287Z,6.10
2019-02-10T21:07:01.344Z,6.00
2019-02-10T21:09:31.391Z,6.00
2019-02-10T21:12:01.474Z,5.90
2019-02-10T21:14:49.605Z,5.90
2019-02-10T21:17:28.686Z,5.80
2019-02-10T21:20:04.206Z,5.80
2019-02-10T21:22:37.247Z,5.70
2019-02-10T21:25:09.136Z,5.60
2019-02-10T21:27:55.212Z,5.50
2019-02-10T21:30:30.706Z,5.40
2019-02-10T21:33:06.502Z,5.40
2019-02-10T21:35:39.288Z,5.30
2019-02-10T21:38:24.368Z,5.20
2019-02-10T21:40:57.348Z,5.10
2019-02-10T21:43:30.176Z,4.90
2019-02-10T21:46:00.249Z,4.90
2019-02-10T21:48:30.300Z,4.90
2019-02-10T21:50:58.700Z,4.90
2019-02-10T21:53:27.125Z,4.90
2019-02-10T21:55:56.527Z,5.00
2019-02-10T21:58:24.962Z,4.90
2019-02-10T22:00:53.390Z,5.00
2019-02-10T22:03:21.812Z,5.00
2019-02-10T22:05:50.246Z,5.00
2019-02-10T22:08:18.663Z,5.00
2019-02-10T22:10:47.120Z,5.00
2019-02-10T22:13:15.533Z,5.00
2019-02-10T22:15:43.960Z,5.10
2019-02-10T22:18:12.394Z,5.10
2019-02-10T22:20:40.794Z,5.10
2019-02-10T22:23:09.214Z,5.10
2019-02-10T22:25:37.620Z,5.10
2019-02-10T22:28:06.066Z,5.10
2019-02-10T22:30:34.473Z,5.10
2019-02-10T22:33:02.868Z,5.10
2019-02-10T22:35:31.325Z,5.10
2019-02-10T22:37:59.738Z,5.20
2019-02-10T22:40:28.164Z,5.10
2019-02-10T22:42:56.578Z,5.10
2019-02-10T22:45:24.988Z,5.20
2019-02-10T22:47:53.393Z,5.20
2019-02-10T22:50:21.826Z,5.20
2019-02-10T22:52:50.235Z,5.30
2019-02-10T22:55:18.697Z,5.30
2019-02-10T22:57:47.183Z,5.30
2019-02-10T23:00:48.720Z,5.30
2019-02-10T23:03:17.120Z,5.30
2019-02-10T23:05:45.788Z,5.20
2019-02-10T23:08:14.223Z,5.30
2019-02-10T23:10:42.722Z,5.20
2019-02-10T23:13:11.117Z,5.30
2019-02-10T23:15:39.536Z,5.20
2019-02-10T23:18:07.959Z,5.20
2019-02-10T23:20:36.387Z,5.20
2019-02-10T23:23:04.792Z,5.20
2019-02-10T23:25:33.218Z,5.30
2019-02-10T23:28:01.646Z,5.30
2019-02-10T23:30:30.071Z,5.30
2019-02-10T23:32:58.472Z,5.30
2019-02-10T23:35:26.900Z,5.30
2019-02-10T23:37:55.372Z,5.30
2019-02-10T23:40:23.797Z,5.30
2019-02-10T23:42:52.198Z,5.30
2019-02-10T23:45:20.613Z,5.40
2019-02-10T23:47:49.049Z,5.30
2019-02-10T23:50:17.459Z,5.30
2019-02-10T23:52:45.966Z,5.30
2019-02-10T23:55:14.501Z,5.30
2019-02-10T23:57:42.896Z,5.20
